Terminal Aerodrome Forecast
Issued by NWS Wakefield, VA

Home | Current Version | Previous Version | Text Only | Print | Product List | Glossary On
Versions: 1 2 3 4 5 6 7 8 9 10 11 12 13 14
000
FTUS41 KAKQ 190500 RRA
TAFRIC
TAF
KRIC 190549Z 1906/2006 11004KT P6SM VCSH SCT040 OVC120
     FM191000 06004KT P6SM -RA BKN040
     FM191400 05012KT P6SM SCT040 OVC060
     FM200200 VRB03KT P6SM SCT250=

USA.gov is the U.S. government's official web portal to all federal, state and local government web resources and services.